sensor_id;sensor_type;location;lat;lon;timestamp;temperature;humidity
18456;DHT22;9357;49.900;8.208;2024-03-08T00:01:15;5.70;99.90
18456;DHT22;9357;49.900;8.208;2024-03-08T00:02:52;5.80;99.90
18456;DHT22;9357;49.900;8.208;2024-03-08T00:04:24;5.70;99.90
18456;DHT22;9357;49.900;8.208;2024-03-08T00:05:57;5.70;99.90
18456;DHT22;9357;49.900;8.208;2024-03-08T00:07:29;5.60;99.90
18456;DHT22;9357;49.900;8.208;2024-03-08T00:09:01;5.60;99.90
18456;DHT22;9357;49.900;8.208;2024-03-08T00:10:33;5.70;99.90
18456;DHT22;9357;49.900;8.208;2024-03-08T00:12:06;5.60;99.90
18456;DHT22;9357;49.900;8.208;2024-03-08T00:13:38;5.60;99.90
18456;DHT22;9357;49.900;8.208;2024-03-08T00:15:11;5.50;99.90
18456;DHT22;9357;49.900;8.208;2024-03-08T00:16:46;5.50;99.90
18456;DHT22;9357;49.900;8.208;2024-03-08T00:18:21;5.40;99.90
18456;DHT22;9357;49.900;8.208;2024-03-08T00:19:53;5.40;99.90
18456;DHT22;9357;49.900;8.208;2024-03-08T00:21:25;5.40;99.90
18456;DHT22;9357;49.900;8.208;2024-03-08T00:22:58;5.30;99.90
18456;DHT22;9357;49.900;8.208;2024-03-08T00:24:31;5.30;99.90
18456;DHT22;9357;49.900;8.208;2024-03-08T00:26:03;5.20;99.90
18456;DHT22;9357;49.900;8.208;2024-03-08T00:27:36;5.20;99.90
18456;DHT22;9357;49.900;8.208;2024-03-08T00:29:08;5.20;99.90
18456;DHT22;9357;49.900;8.208;2024-03-08T00:30:41;5.10;99.90
18456;DHT22;9357;49.900;8.208;2024-03-08T00:32:14;5.10;99.90
18456;DHT22;9357;49.900;8.208;2024-03-08T00:33:49;5.10;99.90
18456;DHT22;9357;49.900;8.208;2024-03-08T00:35:21;5.00;99.90
18456;DHT22;9357;49.900;8.208;2024-03-08T00:36:54;5.00;99.90
18456;DHT22;9357;49.900;8.208;2024-03-08T00:38:26;5.00;99.90
18456;DHT22;9357;49.900;8.208;2024-03-08T00:39:59;5.00;99.90
18456;DHT22;9357;49.900;8.208;2024-03-08T00:41:31;4.90;99.90
18456;DHT22;9357;49.900;8.208;2024-03-08T00:43:04;4.90;99.90
18456;DHT22;9357;49.900;8.208;2024-03-08T00:44:36;4.90;99.90
18456;DHT22;9357;49.900;8.208;2024-03-08T00:46:09;4.90;99.90
18456;DHT22;9357;49.900;8.208;2024-03-08T00:47:42;4.80;99.90
18456;DHT22;9357;49.900;8.208;2024-03-08T00:49:17;4.80;99.90
18456;DHT22;9357;49.900;8.208;2024-03-08T00:50:49;4.70;99.90
18456;DHT22;9357;49.900;8.208;2024-03-08T00:52:21;4.70;99.90
18456;DHT22;9357;49.900;8.208;2024-03-08T00:53:55;4.70;99.90
18456;DHT22;9357;49.900;8.208;2024-03-08T00:55:27;4.60;99.90
18456;DHT22;9357;49.900;8.208;2024-03-08T00:57:01;4.60;99.90
18456;DHT22;9357;49.900;8.208;2024-03-08T00:58:34;4.60;99.90
18456;DHT22;9357;49.900;8.208;2024-03-08T01:00:08;4.60;99.90
18456;DHT22;9357;49.900;8.208;2024-03-08T01:01:44;4.50;99.90
18456;DHT22;9357;49.900;8.208;2024-03-08T01:03:17;4.50;99.90
18456;DHT22;9357;49.900;8.208;2024-03-08T01:04:50;4.50;99.90
18456;DHT22;9357;49.900;8.208;2024-03-08T01:06:23;4.50;99.90
18456;DHT22;9357;49.900;8.208;2024-03-08T01:07:55;4.40;99.90
18456;DHT22;9357;49.900;8.208;2024-03-08T01:09:28;4.40;99.90
18456;DHT22;9357;49.900;8.208;2024-03-08T01:11:00;4.40;99.90
18456;DHT22;9357;49.900;8.208;2024-03-08T01:12:32;4.40;99.90
18456;DHT22;9357;49.900;8.208;2024-03-08T01:14:04;4.40;99.90
18456;DHT22;9357;49.900;8.208;2024-03-08T01:15:37;4.30;99.90
18456;DHT22;9357;49.900;8.208;2024-03-08T01:17:12;4.30;99.90
18456;DHT22;9357;49.900;8.208;2024-03-08T01:18:45;4.20;99.90
18456;DHT22;9357;49.900;8.208;2024-03-08T01:20:22;4.30;99.90
18456;DHT22;9357;49.900;8.208;2024-03-08T01:21:55;4.20;99.90
18456;DHT22;9357;49.900;8.208;2024-03-08T01:23:28;4.10;99.90
18456;DHT22;9357;49.900;8.208;2024-03-08T01:25:01;4.20;99.90
18456;DHT22;9357;49.900;8.208;2024-03-08T01:26:33;4.20;99.90
18456;DHT22;9357;49.900;8.208;2024-03-08T01:28:06;4.10;99.90
18456;DHT22;9357;49.900;8.208;2024-03-08T01:29:38;4.10;99.90
18456;DHT22;9357;49.900;8.208;2024-03-08T01:31:11;4.20;99.90
18456;DHT22;9357;49.900;8.208;2024-03-08T01:32:43;4.10;99.90
18456;DHT22;9357;49.900;8.208;2024-03-08T01:34:16;4.00;99.90
18456;DHT22;9357;49.900;8.208;2024-03-08T01:35:50;4.00;99.90
18456;DHT22;9357;49.900;8.208;2024-03-08T01:37:22;4.00;99.90
18456;DHT22;9357;49.900;8.208;2024-03-08T01:38:54;4.00;99.90
18456;DHT22;9357;49.900;8.208;2024-03-08T01:40:27;4.00;99.90
18456;DHT22;9357;49.900;8.208;2024-03-08T01:41:59;3.90;99.90
18456;DHT22;9357;49.900;8.208;2024-03-08T01:43:32;3.90;99.90
18456;DHT22;9357;49.900;8.208;2024-03-08T01:45:05;3.90;99.90
18456;DHT22;9357;49.900;8.208;2024-03-08T01:46:38;3.90;99.90
18456;DHT22;9357;49.900;8.208;2024-03-08T01:48:10;3.90;99.90
18456;DHT22;9357;49.900;8.208;2024-03-08T01:49:44;3.80;99.90
18456;DHT22;9357;49.900;8.208;2024-03-08T01:51:18;3.80;99.90
18456;DHT22;9357;49.900;8.208;2024-03-08T01:52:50;3.80;99.90
18456;DHT22;9357;49.900;8.208;2024-03-08T01:54:23;3.80;99.90
18456;DHT22;9357;49.900;8.208;2024-03-08T01:55:57;3.70;99.90
18456;DHT22;9357;49.900;8.208;2024-03-08T01:57:31;3.70;99.90
18456;DHT22;9357;49.900;8.208;2024-03-08T01:59:05;3.70;99.90
18456;DHT22;9357;49.900;8.208;2024-03-08T02:00:40;3.70;99.90
18456;DHT22;9357;49.900;8.208;2024-03-08T02:02:15;3.70;99.90
18456;DHT22;9357;49.900;8.208;2024-03-08T02:03:50;3.60;99.90
18456;DHT22;9357;49.900;8.208;2024-03-08T02:05:22;3.70;99.90
18456;DHT22;9357;49.900;8.208;2024-03-08T02:06:57;3.60;99.90
18456;DHT22;9357;49.900;8.208;2024-03-08T02:08:29;3.60;99.90
18456;DHT22;9357;49.900;8.208;2024-03-08T02:10:03;3.50;99.90
18456;DHT22;9357;49.900;8.208;2024-03-08T02:11:35;3.60;99.90
18456;DHT22;9357;49.900;8.208;2024-03-08T02:13:09;3.50;99.90
18456;DHT22;9357;49.900;8.208;2024-03-08T02:14:41;3.50;99.90
18456;DHT22;9357;49.900;8.208;2024-03-08T02:16:20;3.40;99.90
18456;DHT22;9357;49.900;8.208;2024-03-08T02:17:53;3.50;99.90
18456;DHT22;9357;49.900;8.208;2024-03-08T02:19:25;3.50;99.90
18456;DHT22;9357;49.900;8.208;2024-03-08T02:21:00;3.40;99.90
18456;DHT22;9357;49.900;8.208;2024-03-08T02:22:32;3.40;99.90
18456;DHT22;9357;49.900;8.208;2024-03-08T02:24:06;3.40;99.90
18456;DHT22;9357;49.900;8.208;2024-03-08T02:25:39;3.40;99.90
18456;DHT22;9357;49.900;8.208;2024-03-08T02:27:10;3.30;99.90
18456;DHT22;9357;49.900;8.208;2024-03-08T02:28:44;3.30;99.90
18456;DHT22;9357;49.900;8.208;2024-03-08T02:30:16;3.30;99.90
18456;DHT22;9357;49.900;8.208;2024-03-08T02:31:50;3.30;99.90
18456;DHT22;9357;49.900;8.208;2024-03-08T02:33:23;3.30;99.90
18456;DHT22;9357;49.900;8.208;2024-03-08T02:34:56;3.30;99.90
18456;DHT22;9357;49.900;8.208;2024-03-08T02:36:29;3.30;99.90
18456;DHT22;9357;49.900;8.208;2024-03-08T02:38:06;3.30;99.90
18456;DHT22;9357;49.900;8.208;2024-03-08T02:39:38;3.20;99.90
18456;DHT22;9357;49.900;8.208;2024-03-08T02:41:11;3.20;99.90
18456;DHT22;9357;49.900;8.208;2024-03-08T02:42:43;3.20;99.90
18456;DHT22;9357;49.900;8.208;2024-03-08T02:44:15;3.20;99.90
18456;DHT22;9357;49.900;8.208;2024-03-08T02:45:48;3.20;99.90
18456;DHT22;9357;49.900;8.208;2024-03-08T02:47:21;3.10;99.90
18456;DHT22;9357;49.900;8.208;2024-03-08T02:48:56;3.10;99.90
18456;DHT22;9357;49.900;8.208;2024-03-08T02:50:28;3.10;99.90
18456;DHT22;9357;49.900;8.208;2024-03-08T02:52:03;3.10;99.90
18456;DHT22;9357;49.900;8.208;2024-03-08T02:53:35;3.00;99.90
18456;DHT22;9357;49.900;8.208;2024-03-08T02:55:08;3.00;99.90
18456;DHT22;9357;49.900;8.208;2024-03-08T02:56:44;3.00;99.90
18456;DHT22;9357;49.900;8.208;2024-03-08T02:58:18;3.00;99.90
18456;DHT22;9357;49.900;8.208;2024-03-08T02:59:50;3.00;99.90
18456;DHT22;9357;49.900;8.208;2024-03-08T03:01:22;3.00;99.90
18456;DHT22;9357;49.900;8.208;2024-03-08T03:02:54;2.90;99.90
18456;DHT22;9357;49.900;8.208;2024-03-08T03:04:28;2.90;99.90
18456;DHT22;9357;49.900;8.208;2024-03-08T03:06:00;3.00;99.90
18456;DHT22;9357;49.900;8.208;2024-03-08T03:07:34;2.90;99.90
18456;DHT22;9357;49.900;8.208;2024-03-08T03:09:06;2.80;99.90
18456;DHT22;9357;49.900;8.208;2024-03-08T03:10:42;2.80;99.90
18456;DHT22;9357;49.900;8.208;2024-03-08T03:12:13;2.80;99.90
18456;DHT22;9357;49.900;8.208;2024-03-08T03:13:46;2.80;99.90
18456;DHT22;9357;49.900;8.208;2024-03-08T03:15:20;2.80;99.90
18456;DHT22;9357;49.900;8.208;2024-03-08T03:16:58;2.80;99.90
18456;DHT22;9357;49.900;8.208;2024-03-08T03:18:30;2.80;99.90
18456;DHT22;9357;49.900;8.208;2024-03-08T03:20:05;2.70;99.90
18456;DHT22;9357;49.900;8.208;2024-03-08T03:21:41;2.70;99.90
18456;DHT22;9357;49.900;8.208;2024-03-08T03:23:16;2.70;99.90
18456;DHT22;9357;49.900;8.208;2024-03-08T03:24:52;2.70;99.90
18456;DHT22;9357;49.900;8.208;2024-03-08T03:26:25;2.60;99.90
18456;DHT22;9357;49.900;8.208;2024-03-08T03:27:57;2.60;99.90
18456;DHT22;9357;49.900;8.208;2024-03-08T03:29:30;2.60;99.90
18456;DHT22;9357;49.900;8.208;2024-03-08T03:31:02;2.60;99.90
18456;DHT22;9357;49.900;8.208;2024-03-08T03:32:37;2.70;99.90
18456;DHT22;9357;49.900;8.208;2024-03-08T03:34:18;2.60;99.90
18456;DHT22;9357;49.900;8.208;2024-03-08T03:35:51;2.50;99.90
18456;DHT22;9357;49.900;8.208;2024-03-08T03:37:23;2.50;99.90
18456;DHT22;9357;49.900;8.208;2024-03-08T03:38:57;2.50;99.90
18456;DHT22;9357;49.900;8.208;2024-03-08T03:40:41;2.50;99.90
18456;DHT22;9357;49.900;8.208;2024-03-08T03:42:13;2.60;99.90
18456;DHT22;9357;49.900;8.208;2024-03-08T03:43:47;2.50;99.90
18456;DHT22;9357;49.900;8.208;2024-03-08T03:45:21;2.50;99.90
18456;DHT22;9357;49.900;8.208;2024-03-08T03:46:53;2.50;99.90
18456;DHT22;9357;49.900;8.208;2024-03-08T03:48:25;2.50;99.90
18456;DHT22;9357;49.900;8.208;2024-03-08T03:49:58;2.50;99.90
18456;DHT22;9357;49.900;8.208;2024-03-08T03:51:33;2.50;99.90
18456;DHT22;9357;49.900;8.208;2024-03-08T03:53:06;2.50;99.90
18456;DHT22;9357;49.900;8.208;2024-03-08T03:54:43;2.40;99.90
18456;DHT22;9357;49.900;8.208;2024-03-08T03:56:14;2.50;99.90
18456;DHT22;9357;49.900;8.208;2024-03-08T03:57:47;2.40;99.90
18456;DHT22;9357;49.900;8.208;2024-03-08T03:59:19;2.40;99.90
18456;DHT22;9357;49.900;8.208;2024-03-08T04:00:51;2.40;99.90
18456;DHT22;9357;49.900;8.208;2024-03-08T04:02:23;2.40;99.90
18456;DHT22;9357;49.900;8.208;2024-03-08T04:03:57;2.40;99.90
18456;DHT22;9357;49.900;8.208;2024-03-08T04:05:29;2.40;99.90
18456;DHT22;9357;49.900;8.208;2024-03-08T04:07:02;2.30;99.90
18456;DHT22;9357;49.900;8.208;2024-03-08T04:08:34;2.30;99.90
18456;DHT22;9357;49.900;8.208;2024-03-08T04:10:09;2.30;99.90
18456;DHT22;9357;49.900;8.208;2024-03-08T04:11:41;2.30;99.90
18456;DHT22;9357;49.900;8.208;2024-03-08T04:13:14;2.30;99.90
18456;DHT22;9357;49.900;8.208;2024-03-08T04:14:47;2.30;99.90
18456;DHT22;9357;49.900;8.208;2024-03-08T04:16:19;2.20;99.90
18456;DHT22;9357;49.900;8.208;2024-03-08T04:17:52;2.30;99.90
18456;DHT22;9357;49.900;8.208;2024-03-08T04:19:24;2.30;99.90
18456;DHT22;9357;49.900;8.208;2024-03-08T04:20:59;2.30;99.90
18456;DHT22;9357;49.900;8.208;2024-03-08T04:22:31;2.30;99.90
18456;DHT22;9357;49.900;8.208;2024-03-08T04:24:04;2.30;99.90
18456;DHT22;9357;49.900;8.208;2024-03-08T04:25:39;2.30;99.90
18456;DHT22;9357;49.900;8.208;2024-03-08T04:27:10;2.30;99.90
18456;DHT22;9357;49.900;8.208;2024-03-08T04:28:43;2.30;99.90
18456;DHT22;9357;49.900;8.208;2024-03-08T04:30:16;2.20;99.90
18456;DHT22;9357;49.900;8.208;2024-03-08T04:31:48;2.20;99.90
18456;DHT22;9357;49.900;8.208;2024-03-08T04:33:21;2.30;99.90
18456;DHT22;9357;49.900;8.208;2024-03-08T04:34:55;2.20;99.90
18456;DHT22;9357;49.900;8.208;2024-03-08T04:36:28;2.20;99.90
18456;DHT22;9357;49.900;8.208;2024-03-08T04:38:00;2.20;99.90
18456;DHT22;9357;49.900;8.208;2024-03-08T04:39:32;2.20;99.90
18456;DHT22;9357;49.900;8.208;2024-03-08T04:41:06;2.20;99.90
18456;DHT22;9357;49.900;8.208;2024-03-08T04:42:39;2.20;99.90
18456;DHT22;9357;49.900;8.208;2024-03-08T04:44:11;2.20;99.90
18456;DHT22;9357;49.900;8.208;2024-03-08T04:45:45;2.20;99.90
18456;DHT22;9357;49.900;8.208;2024-03-08T04:47:17;2.20;99.90
18456;DHT22;9357;49.900;8.208;2024-03-08T04:48:49;2.20;99.90
18456;DHT22;9357;49.900;8.208;2024-03-08T04:50:21;2.20;99.90
18456;DHT22;9357;49.900;8.208;2024-03-08T04:51:55;2.20;99.90
18456;DHT22;9357;49.900;8.208;2024-03-08T04:53:27;2.10;99.90
18456;DHT22;9357;49.900;8.208;2024-03-08T04:55:00;2.10;99.90
18456;DHT22;9357;49.900;8.208;2024-03-08T04:56:34;2.10;99.90
18456;DHT22;9357;49.900;8.208;2024-03-08T04:58:07;2.10;99.90
18456;DHT22;9357;49.900;8.208;2024-03-08T04:59:39;2.10;99.90
18456;DHT22;9357;49.900;8.208;2024-03-08T05:01:13;2.10;99.90
18456;DHT22;9357;49.900;8.208;2024-03-08T05:02:46;2.10;99.90
18456;DHT22;9357;49.900;8.208;2024-03-08T05:04:18;2.10;99.90
18456;DHT22;9357;49.900;8.208;2024-03-08T05:05:50;2.10;99.90
18456;DHT22;9357;49.900;8.208;2024-03-08T05:07:22;2.00;99.90
18456;DHT22;9357;49.900;8.208;2024-03-08T05:08:58;2.00;99.90
18456;DHT22;9357;49.900;8.208;2024-03-08T05:10:30;2.00;99.90
18456;DHT22;9357;49.900;8.208;2024-03-08T05:12:06;2.00;99.90
18456;DHT22;9357;49.900;8.208;2024-03-08T05:13:38;2.00;99.90
18456;DHT22;9357;49.900;8.208;2024-03-08T05:15:11;2.00;99.90
18456;DHT22;9357;49.900;8.208;2024-03-08T05:16:44;1.90;99.90
18456;DHT22;9357;49.900;8.208;2024-03-08T05:18:20;1.90;99.90
18456;DHT22;9357;49.900;8.208;2024-03-08T05:19:53;1.90;99.90
18456;DHT22;9357;49.900;8.208;2024-03-08T05:21:26;1.90;99.90
18456;DHT22;9357;49.900;8.208;2024-03-08T05:22:58;1.80;99.90
18456;DHT22;9357;49.900;8.208;2024-03-08T05:24:32;1.80;99.90
18456;DHT22;9357;49.900;8.208;2024-03-08T05:26:03;1.90;99.90
18456;DHT22;9357;49.900;8.208;2024-03-08T05:27:41;1.80;99.90
18456;DHT22;9357;49.900;8.208;2024-03-08T05:29:13;1.80;99.90
18456;DHT22;9357;49.900;8.208;2024-03-08T05:30:47;1.80;99.90
18456;DHT22;9357;49.900;8.208;2024-03-08T05:32:18;1.80;99.90
18456;DHT22;9357;49.900;8.208;2024-03-08T05:33:51;1.80;99.90
18456;DHT22;9357;49.900;8.208;2024-03-08T05:35:26;1.80;99.90
18456;DHT22;9357;49.900;8.208;2024-03-08T05:36:58;1.80;99.90
18456;DHT22;9357;49.900;8.208;2024-03-08T05:38:31;1.80;99.90
18456;DHT22;9357;49.900;8.208;2024-03-08T05:40:06;1.80;99.90
18456;DHT22;9357;49.900;8.208;2024-03-08T05:41:47;1.80;99.90
18456;DHT22;9357;49.900;8.208;2024-03-08T05:43:21;1.80;99.90
18456;DHT22;9357;49.900;8.208;2024-03-08T05:44:53;1.80;99.90
18456;DHT22;9357;49.900;8.208;2024-03-08T05:46:29;1.70;99.90
18456;DHT22;9357;49.900;8.208;2024-03-08T05:48:00;1.80;99.90
18456;DHT22;9357;49.900;8.208;2024-03-08T05:49:34;1.80;99.90
18456;DHT22;9357;49.900;8.208;2024-03-08T05:51:05;1.80;99.90
18456;DHT22;9357;49.900;8.208;2024-03-08T05:52:38;1.80;99.90
18456;DHT22;9357;49.900;8.208;2024-03-08T05:54:11;1.80;99.90
18456;DHT22;9357;49.900;8.208;2024-03-08T05:55:48;1.80;99.90
18456;DHT22;9357;49.900;8.208;2024-03-08T05:57:21;1.80;99.90
18456;DHT22;9357;49.900;8.208;2024-03-08T05:58:56;1.80;99.90
18456;DHT22;9357;49.900;8.208;2024-03-08T06:00:28;1.80;99.90
18456;DHT22;9357;49.900;8.208;2024-03-08T06:02:02;1.80;99.90
18456;DHT22;9357;49.900;8.208;2024-03-08T06:03:36;1.80;99.90
18456;DHT22;9357;49.900;8.208;2024-03-08T06:05:13;1.80;99.90
18456;DHT22;9357;49.900;8.208;2024-03-08T06:06:46;1.80;99.90
18456;DHT22;9357;49.900;8.208;2024-03-08T06:08:23;1.80;99.90
18456;DHT22;9357;49.900;8.208;2024-03-08T06:09:54;1.80;99.90
18456;DHT22;9357;49.900;8.208;2024-03-08T06:11:27;1.80;99.90
18456;DHT22;9357;49.900;8.208;2024-03-08T06:13:00;1.80;99.90
18456;DHT22;9357;49.900;8.208;2024-03-08T06:14:34;1.80;99.90
18456;DHT22;9357;49.900;8.208;2024-03-08T06:16:06;1.80;99.90
18456;DHT22;9357;49.900;8.208;2024-03-08T06:17:39;1.80;99.90
18456;DHT22;9357;49.900;8.208;2024-03-08T06:19:12;1.70;99.90
18456;DHT22;9357;49.900;8.208;2024-03-08T06:20:45;1.80;99.90
18456;DHT22;9357;49.900;8.208;2024-03-08T06:22:17;1.80;99.90
18456;DHT22;9357;49.900;8.208;2024-03-08T06:23:52;1.70;99.90
18456;DHT22;9357;49.900;8.208;2024-03-08T06:25:26;1.70;99.90
18456;DHT22;9357;49.900;8.208;2024-03-08T06:26:58;1.70;99.90
18456;DHT22;9357;49.900;8.208;2024-03-08T06:28:30;1.70;99.90
18456;DHT22;9357;49.900;8.208;2024-03-08T06:30:06;1.70;99.90
18456;DHT22;9357;49.900;8.208;2024-03-08T06:31:42;1.70;99.90
18456;DHT22;9357;49.900;8.208;2024-03-08T06:33:14;1.70;99.90
18456;DHT22;9357;49.900;8.208;2024-03-08T06:34:48;1.70;99.90
18456;DHT22;9357;49.900;8.208;2024-03-08T06:36:21;1.70;99.90
18456;DHT22;9357;49.900;8.208;2024-03-08T06:37:53;1.70;99.90
18456;DHT22;9357;49.900;8.208;2024-03-08T06:39:27;1.70;99.90
18456;DHT22;9357;49.900;8.208;2024-03-08T06:41:01;1.70;99.90
18456;DHT22;9357;49.900;8.208;2024-03-08T06:42:35;1.70;99.90
18456;DHT22;9357;49.900;8.208;2024-03-08T06:44:10;1.70;99.90
18456;DHT22;9357;49.900;8.208;2024-03-08T06:45:44;1.70;99.90
18456;DHT22;9357;49.900;8.208;2024-03-08T06:47:20;1.80;99.90
18456;DHT22;9357;49.900;8.208;2024-03-08T06:48:52;1.80;99.90
18456;DHT22;9357;49.900;8.208;2024-03-08T06:50:25;1.80;99.90
18456;DHT22;9357;49.900;8.208;2024-03-08T06:51:57;1.80;99.90
18456;DHT22;9357;49.900;8.208;2024-03-08T06:53:30;1.80;99.90
18456;DHT22;9357;49.900;8.208;2024-03-08T06:55:03;1.80;99.90
18456;DHT22;9357;49.900;8.208;2024-03-08T06:56:36;1.80;99.90
18456;DHT22;9357;49.900;8.208;2024-03-08T06:58:09;1.80;99.90
18456;DHT22;9357;49.900;8.208;2024-03-08T06:59:42;1.80;99.90
18456;DHT22;9357;49.900;8.208;2024-03-08T07:01:16;1.90;99.90
18456;DHT22;9357;49.900;8.208;2024-03-08T07:02:49;1.90;99.90
18456;DHT22;9357;49.900;8.208;2024-03-08T07:04:21;2.00;99.90
18456;DHT22;9357;49.900;8.208;2024-03-08T07:05:58;2.00;99.90
18456;DHT22;9357;49.900;8.208;2024-03-08T07:07:31;2.00;99.90
18456;DHT22;9357;49.900;8.208;2024-03-08T07:09:03;2.00;99.90
18456;DHT22;9357;49.900;8.208;2024-03-08T07:10:36;2.00;99.90
18456;DHT22;9357;49.900;8.208;2024-03-08T07:12:09;2.00;99.90
18456;DHT22;9357;49.900;8.208;2024-03-08T07:13:41;2.10;99.90
18456;DHT22;9357;49.900;8.208;2024-03-08T07:15:14;2.10;99.90
18456;DHT22;9357;49.900;8.208;2024-03-08T07:16:48;2.10;99.90
18456;DHT22;9357;49.900;8.208;2024-03-08T07:18:21;2.20;99.90
18456;DHT22;9357;49.900;8.208;2024-03-08T07:19:53;2.20;99.90
18456;DHT22;9357;49.900;8.208;2024-03-08T07:21:26;2.20;99.90
18456;DHT22;9357;49.900;8.208;2024-03-08T07:22:58;2.30;99.90
18456;DHT22;9357;49.900;8.208;2024-03-08T07:24:31;2.40;99.90
18456;DHT22;9357;49.900;8.208;2024-03-08T07:26:15;2.30;99.90
18456;DHT22;9357;49.900;8.208;2024-03-08T07:27:48;2.40;99.90
18456;DHT22;9357;49.900;8.208;2024-03-08T07:29:20;2.40;99.90
18456;DHT22;9357;49.900;8.208;2024-03-08T07:30:52;2.50;99.90
18456;DHT22;9357;49.900;8.208;2024-03-08T07:32:34;2.50;99.90
18456;DHT22;9357;49.900;8.208;2024-03-08T07:34:07;2.60;99.90
18456;DHT22;9357;49.900;8.208;2024-03-08T07:35:39;2.70;99.90
18456;DHT22;9357;49.900;8.208;2024-03-08T07:37:13;2.80;99.90
18456;DHT22;9357;49.900;8.208;2024-03-08T07:38:45;2.90;99.90
18456;DHT22;9357;49.900;8.208;2024-03-08T07:40:18;3.20;99.90
18456;DHT22;9357;49.900;8.208;2024-03-08T07:41:50;3.40;99.90
18456;DHT22;9357;49.900;8.208;2024-03-08T07:43:24;3.70;99.90
18456;DHT22;9357;49.900;8.208;2024-03-08T07:44:56;4.00;99.90
18456;DHT22;9357;49.900;8.208;2024-03-08T07:46:29;4.20;99.90
18456;DHT22;9357;49.900;8.208;2024-03-08T07:48:06;4.50;99.90
18456;DHT22;9357;49.900;8.208;2024-03-08T07:49:41;4.70;99.90
18456;DHT22;9357;49.900;8.208;2024-03-08T07:51:16;4.90;99.90
18456;DHT22;9357;49.900;8.208;2024-03-08T07:52:49;5.00;99.90
18456;DHT22;9357;49.900;8.208;2024-03-08T07:54:22;5.20;99.90
18456;DHT22;9357;49.900;8.208;2024-03-08T07:55:55;5.40;99.90
18456;DHT22;9357;49.900;8.208;2024-03-08T07:57:27;5.50;99.90
18456;DHT22;9357;49.900;8.208;2024-03-08T07:59:01;5.60;99.90
18456;DHT22;9357;49.900;8.208;2024-03-08T08:00:35;5.90;99.90
18456;DHT22;9357;49.900;8.208;2024-03-08T08:02:07;6.00;99.90
18456;DHT22;9357;49.900;8.208;2024-03-08T08:03:42;6.20;99.90
18456;DHT22;9357;49.900;8.208;2024-03-08T08:05:14;6.40;99.90
18456;DHT22;9357;49.900;8.208;2024-03-08T08:06:51;6.60;99.90
18456;DHT22;9357;49.900;8.208;2024-03-08T08:08:22;6.70;99.90
18456;DHT22;9357;49.900;8.208;2024-03-08T08:09:57;7.00;99.90
18456;DHT22;9357;49.900;8.208;2024-03-08T08:11:29;7.00;99.90
18456;DHT22;9357;49.900;8.208;2024-03-08T08:13:02;7.10;99.90
18456;DHT22;9357;49.900;8.208;2024-03-08T08:14:36;7.20;99.90
18456;DHT22;9357;49.900;8.208;2024-03-08T08:16:09;7.30;99.90
18456;DHT22;9357;49.900;8.208;2024-03-08T08:17:44;7.50;99.90
18456;DHT22;9357;49.900;8.208;2024-03-08T08:19:17;7.60;99.90
18456;DHT22;9357;49.900;8.208;2024-03-08T08:20:50;7.70;99.90
18456;DHT22;9357;49.900;8.208;2024-03-08T08:22:23;7.90;99.90
18456;DHT22;9357;49.900;8.208;2024-03-08T08:23:55;8.00;99.90
18456;DHT22;9357;49.900;8.208;2024-03-08T08:25:28;8.00;99.90
18456;DHT22;9357;49.900;8.208;2024-03-08T08:27:00;8.10;99.90
18456;DHT22;9357;49.900;8.208;2024-03-08T08:28:33;8.20;99.90
18456;DHT22;9357;49.900;8.208;2024-03-08T08:30:07;8.30;99.90
18456;DHT22;9357;49.900;8.208;2024-03-08T08:31:40;8.30;99.90
18456;DHT22;9357;49.900;8.208;2024-03-08T08:33:13;8.40;99.90
18456;DHT22;9357;49.900;8.208;2024-03-08T08:34:47;8.40;99.90
18456;DHT22;9357;49.900;8.208;2024-03-08T08:36:21;8.40;99.90
18456;DHT22;9357;49.900;8.208;2024-03-08T08:37:52;8.50;99.90
18456;DHT22;9357;49.900;8.208;2024-03-08T08:39:25;8.60;99.90
18456;DHT22;9357;49.900;8.208;2024-03-08T08:40:57;8.80;99.90
18456;DHT22;9357;49.900;8.208;2024-03-08T08:42:30;8.90;99.90
18456;DHT22;9357;49.900;8.208;2024-03-08T08:44:02;8.90;99.90
18456;DHT22;9357;49.900;8.208;2024-03-08T08:45:38;9.00;99.90
18456;DHT22;9357;49.900;8.208;2024-03-08T08:47:11;8.90;99.90
18456;DHT22;9357;49.900;8.208;2024-03-08T08:48:47;9.00;99.90
18456;DHT22;9357;49.900;8.208;2024-03-08T08:50:21;9.00;99.90
18456;DHT22;9357;49.900;8.208;2024-03-08T08:51:55;9.10;99.90
18456;DHT22;9357;49.900;8.208;2024-03-08T08:53:40;9.30;99.90
18456;DHT22;9357;49.900;8.208;2024-03-08T08:55:14;9.40;99.90
18456;DHT22;9357;49.900;8.208;2024-03-08T08:56:46;9.40;99.90
18456;DHT22;9357;49.900;8.208;2024-03-08T08:58:19;9.50;99.90
18456;DHT22;9357;49.900;8.208;2024-03-08T08:59:51;9.60;99.90
18456;DHT22;9357;49.900;8.208;2024-03-08T09:01:24;9.70;99.90
18456;DHT22;9357;49.900;8.208;2024-03-08T09:02:56;9.90;99.90
18456;DHT22;9357;49.900;8.208;2024-03-08T09:04:30;9.90;99.90
18456;DHT22;9357;49.900;8.208;2024-03-08T09:06:04;10.00;99.90
18456;DHT22;9357;49.900;8.208;2024-03-08T09:07:39;10.20;99.90
18456;DHT22;9357;49.900;8.208;2024-03-08T09:09:11;10.40;99.90
18456;DHT22;9357;49.900;8.208;2024-03-08T09:10:45;10.60;99.90
18456;DHT22;9357;49.900;8.208;2024-03-08T09:12:19;10.70;99.90
18456;DHT22;9357;49.900;8.208;2024-03-08T09:13:52;10.70;99.90
18456;DHT22;9357;49.900;8.208;2024-03-08T09:15:24;10.60;99.90
18456;DHT22;9357;49.900;8.208;2024-03-08T09:17:00;10.60;99.90
18456;DHT22;9357;49.900;8.208;2024-03-08T09:18:33;10.70;99.90
18456;DHT22;9357;49.900;8.208;2024-03-08T09:20:07;10.50;99.90
18456;DHT22;9357;49.900;8.208;2024-03-08T09:21:41;10.50;99.90
18456;DHT22;9357;49.900;8.208;2024-03-08T09:23:14;10.50;99.90
18456;DHT22;9357;49.900;8.208;2024-03-08T09:24:48;10.70;99.90
18456;DHT22;9357;49.900;8.208;2024-03-08T09:26:21;10.60;99.90
18456;DHT22;9357;49.900;8.208;2024-03-08T09:28:00;10.70;99.90
18456;DHT22;9357;49.900;8.208;2024-03-08T09:29:33;10.80;99.90
18456;DHT22;9357;49.900;8.208;2024-03-08T09:31:04;11.00;99.90
18456;DHT22;9357;49.900;8.208;2024-03-08T09:32:37;11.10;99.90
18456;DHT22;9357;49.900;8.208;2024-03-08T09:34:12;11.20;99.90
18456;DHT22;9357;49.900;8.208;2024-03-08T09:35:54;11.20;99.90
18456;DHT22;9357;49.900;8.208;2024-03-08T09:37:32;11.20;99.90
18456;DHT22;9357;49.900;8.208;2024-03-08T09:39:05;11.30;99.90
18456;DHT22;9357;49.900;8.208;2024-03-08T09:40:41;11.40;99.90
18456;DHT22;9357;49.900;8.208;2024-03-08T09:42:12;11.40;99.90
18456;DHT22;9357;49.900;8.208;2024-03-08T09:43:46;11.50;99.90
18456;DHT22;9357;49.900;8.208;2024-03-08T09:45:20;11.70;99.90
18456;DHT22;9357;49.900;8.208;2024-03-08T09:47:09;11.90;99.90
18456;DHT22;9357;49.900;8.208;2024-03-08T09:48:42;12.00;99.90
18456;DHT22;9357;49.900;8.208;2024-03-08T09:50:15;12.00;99.90
18456;DHT22;9357;49.900;8.208;2024-03-08T09:51:50;12.10;99.90
18456;DHT22;9357;49.900;8.208;2024-03-08T09:53:26;12.20;99.90
18456;DHT22;9357;49.900;8.208;2024-03-08T09:54:58;12.10;99.90
18456;DHT22;9357;49.900;8.208;2024-03-08T09:56:32;12.10;99.90
18456;DHT22;9357;49.900;8.208;2024-03-08T09:58:06;12.10;99.90
18456;DHT22;9357;49.900;8.208;2024-03-08T10:00:08;12.00;99.90
18456;DHT22;9357;49.900;8.208;2024-03-08T10:01:55;11.80;99.90
18456;DHT22;9357;49.900;8.208;2024-03-08T10:03:28;11.80;99.90
18456;DHT22;9357;49.900;8.208;2024-03-08T10:05:01;11.90;99.90
18456;DHT22;9357;49.900;8.208;2024-03-08T10:06:35;12.00;99.90
18456;DHT22;9357;49.900;8.208;2024-03-08T10:08:08;12.10;99.90
18456;DHT22;9357;49.900;8.208;2024-03-08T10:09:41;12.00;99.90